sensor_id;sensor_type;location;lat;lon;timestamp;temperature;humidity
74178;DHT22;62540;48.456;-4.456;2022-12-24T00:01:16;14.12;80.23
74178;DHT22;62540;48.456;-4.456;2022-12-24T00:03:42;14.09;80.20
74178;DHT22;62540;48.456;-4.456;2022-12-24T00:06:15;14.04;80.14
74178;DHT22;62540;48.456;-4.456;2022-12-24T00:08:41;14.02;80.14
74178;DHT22;62540;48.456;-4.456;2022-12-24T00:11:06;13.98;80.07
74178;DHT22;62540;48.456;-4.456;2022-12-24T00:13:32;14.01;80.09
74178;DHT22;62540;48.456;-4.456;2022-12-24T00:15:58;13.99;79.98
74178;DHT22;62540;48.456;-4.456;2022-12-24T00:18:24;14.06;79.82
74178;DHT22;62540;48.456;-4.456;2022-12-24T00:20:49;14.09;79.78
74178;DHT22;62540;48.456;-4.456;2022-12-24T00:23:16;14.06;79.52
74178;DHT22;62540;48.456;-4.456;2022-12-24T00:25:42;14.08;79.58
74178;DHT22;62540;48.456;-4.456;2022-12-24T00:28:07;14.08;79.48
74178;DHT22;62540;48.456;-4.456;2022-12-24T00:30:33;14.08;79.40
74178;DHT22;62540;48.456;-4.456;2022-12-24T00:32:58;14.13;79.13
74178;DHT22;62540;48.456;-4.456;2022-12-24T00:35:23;14.10;79.26
74178;DHT22;62540;48.456;-4.456;2022-12-24T00:37:49;14.10;79.00
74178;DHT22;62540;48.456;-4.456;2022-12-24T00:40:16;14.05;79.02
74178;DHT22;62540;48.456;-4.456;2022-12-24T00:42:41;14.05;79.31
74178;DHT22;62540;48.456;-4.456;2022-12-24T00:45:08;14.08;79.26
74178;DHT22;62540;48.456;-4.456;2022-12-24T00:47:33;14.06;79.19
74178;DHT22;62540;48.456;-4.456;2022-12-24T00:49:59;14.05;79.35
74178;DHT22;62540;48.456;-4.456;2022-12-24T00:52:24;14.02;79.36
74178;DHT22;62540;48.456;-4.456;2022-12-24T00:54:50;14.01;79.54
74178;DHT22;62540;48.456;-4.456;2022-12-24T00:57:15;14.01;79.51
74178;DHT22;62540;48.456;-4.456;2022-12-24T00:59:41;14.04;79.52
74178;DHT22;62540;48.456;-4.456;2022-12-24T01:02:06;13.99;79.69
74178;DHT22;62540;48.456;-4.456;2022-12-24T01:04:31;14.02;79.89
74178;DHT22;62540;48.456;-4.456;2022-12-24T01:07:15;14.01;79.88
74178;DHT22;62540;48.456;-4.456;2022-12-24T01:09:41;13.97;80.26
74178;DHT22;62540;48.456;-4.456;2022-12-24T01:12:06;13.97;80.29
74178;DHT22;62540;48.456;-4.456;2022-12-24T01:14:31;14.02;80.34
74178;DHT22;62540;48.456;-4.456;2022-12-24T01:16:57;13.99;80.49
74178;DHT22;62540;48.456;-4.456;2022-12-24T01:19:22;13.98;80.52
74178;DHT22;62540;48.456;-4.456;2022-12-24T01:21:48;13.99;80.74
74178;DHT22;62540;48.456;-4.456;2022-12-24T01:24:15;13.99;81.00
74178;DHT22;62540;48.456;-4.456;2022-12-24T01:26:41;13.98;80.87
74178;DHT22;62540;48.456;-4.456;2022-12-24T01:29:07;13.97;81.40
74178;DHT22;62540;48.456;-4.456;2022-12-24T01:31:32;13.92;81.58
74178;DHT22;62540;48.456;-4.456;2022-12-24T01:33:58;13.90;81.77
74178;DHT22;62540;48.456;-4.456;2022-12-24T01:36:23;13.90;81.60
74178;DHT22;62540;48.456;-4.456;2022-12-24T01:38:48;13.94;81.89
74178;DHT22;62540;48.456;-4.456;2022-12-24T01:41:16;13.90;81.89
74178;DHT22;62540;48.456;-4.456;2022-12-24T01:46:45;13.97;81.69
74178;DHT22;62540;48.456;-4.456;2022-12-24T01:49:12;13.92;82.10
74178;DHT22;62540;48.456;-4.456;2022-12-24T01:51:47;13.98;81.80
74178;DHT22;62540;48.456;-4.456;2022-12-24T01:54:24;13.99;81.67
74178;DHT22;62540;48.456;-4.456;2022-12-24T01:56:57;13.99;81.55
74178;DHT22;62540;48.456;-4.456;2022-12-24T01:59:24;14.04;81.58
74178;DHT22;62540;48.456;-4.456;2022-12-24T02:01:50;14.05;81.46
74178;DHT22;62540;48.456;-4.456;2022-12-24T02:04:33;14.04;81.51
74178;DHT22;62540;48.456;-4.456;2022-12-24T02:07:01;14.06;81.58
74178;DHT22;62540;48.456;-4.456;2022-12-24T02:09:27;14.06;81.55
74178;DHT22;62540;48.456;-4.456;2022-12-24T02:11:53;14.06;81.52
74178;DHT22;62540;48.456;-4.456;2022-12-24T02:14:18;14.09;81.34
74178;DHT22;62540;48.456;-4.456;2022-12-24T02:17:02;14.09;81.34
74178;DHT22;62540;48.456;-4.456;2022-12-24T02:25:43;14.12;81.19
74178;DHT22;62540;48.456;-4.456;2022-12-24T02:34:17;14.08;81.22
74178;DHT22;62540;48.456;-4.456;2022-12-24T02:36:53;14.09;81.16
74178;DHT22;62540;48.456;-4.456;2022-12-24T02:39:24;14.08;81.17
74178;DHT22;62540;48.456;-4.456;2022-12-24T02:41:52;14.06;81.20
74178;DHT22;62540;48.456;-4.456;2022-12-24T02:44:47;14.06;81.15
74178;DHT22;62540;48.456;-4.456;2022-12-24T02:47:15;14.06;81.21
74178;DHT22;62540;48.456;-4.456;2022-12-24T02:49:46;14.06;81.18
74178;DHT22;62540;48.456;-4.456;2022-12-24T02:54:54;14.04;81.30
74178;DHT22;62540;48.456;-4.456;2022-12-24T03:00:12;14.06;81.23
74178;DHT22;62540;48.456;-4.456;2022-12-24T03:02:49;14.10;81.20
74178;DHT22;62540;48.456;-4.456;2022-12-24T03:10:48;14.12;81.18
74178;DHT22;62540;48.456;-4.456;2022-12-24T03:13:16;14.09;81.18
74178;DHT22;62540;48.456;-4.456;2022-12-24T03:15:43;14.06;81.13
74178;DHT22;62540;48.456;-4.456;2022-12-24T03:18:11;14.06;80.86
74178;DHT22;62540;48.456;-4.456;2022-12-24T03:20:44;14.06;80.04
74178;DHT22;62540;48.456;-4.456;2022-12-24T03:23:10;14.06;79.90
74178;DHT22;62540;48.456;-4.456;2022-12-24T03:25:39;14.01;79.27
74178;DHT22;62540;48.456;-4.456;2022-12-24T03:28:06;13.97;78.73
74178;DHT22;62540;48.456;-4.456;2022-12-24T03:30:34;13.95;78.79
74178;DHT22;62540;48.456;-4.456;2022-12-24T03:33:00;13.89;78.08
74178;DHT22;62540;48.456;-4.456;2022-12-24T03:35:26;13.92;77.53
74178;DHT22;62540;48.456;-4.456;2022-12-24T03:37:51;13.90;77.51
74178;DHT22;62540;48.456;-4.456;2022-12-24T03:40:17;13.85;77.26
74178;DHT22;62540;48.456;-4.456;2022-12-24T03:42:42;13.83;77.34
74178;DHT22;62540;48.456;-4.456;2022-12-24T03:45:08;13.79;77.35
74178;DHT22;62540;48.456;-4.456;2022-12-24T03:47:34;13.78;77.54
74178;DHT22;62540;48.456;-4.456;2022-12-24T03:49:59;13.78;77.67
74178;DHT22;62540;48.456;-4.456;2022-12-24T03:52:25;13.78;77.43
74178;DHT22;62540;48.456;-4.456;2022-12-24T03:54:50;13.72;78.30
74178;DHT22;62540;48.456;-4.456;2022-12-24T03:57:15;13.77;78.36
74178;DHT22;62540;48.456;-4.456;2022-12-24T03:59:41;13.75;78.39
74178;DHT22;62540;48.456;-4.456;2022-12-24T04:02:06;13.68;79.27
74178;DHT22;62540;48.456;-4.456;2022-12-24T04:04:32;13.72;79.58
74178;DHT22;62540;48.456;-4.456;2022-12-24T04:07:00;13.69;80.63
74178;DHT22;62540;48.456;-4.456;2022-12-24T04:09:26;13.69;80.79
74178;DHT22;62540;48.456;-4.456;2022-12-24T04:11:51;13.75;80.85
74178;DHT22;62540;48.456;-4.456;2022-12-24T04:14:17;13.78;81.08
74178;DHT22;62540;48.456;-4.456;2022-12-24T04:16:42;13.78;81.56
74178;DHT22;62540;48.456;-4.456;2022-12-24T04:19:07;13.78;81.50
74178;DHT22;62540;48.456;-4.456;2022-12-24T04:21:33;13.79;81.67
74178;DHT22;62540;48.456;-4.456;2022-12-24T04:23:59;13.82;81.78
74178;DHT22;62540;48.456;-4.456;2022-12-24T04:26:24;13.83;81.78
74178;DHT22;62540;48.456;-4.456;2022-12-24T04:28:50;13.92;81.54
74178;DHT22;62540;48.456;-4.456;2022-12-24T04:31:16;13.89;81.99
74178;DHT22;62540;48.456;-4.456;2022-12-24T04:33:42;13.97;81.69
74178;DHT22;62540;48.456;-4.456;2022-12-24T04:36:13;13.97;81.77
74178;DHT22;62540;48.456;-4.456;2022-12-24T04:38:39;13.99;81.73
74178;DHT22;62540;48.456;-4.456;2022-12-24T04:41:07;14.02;81.66
74178;DHT22;62540;48.456;-4.456;2022-12-24T04:43:34;14.06;81.48
74178;DHT22;62540;48.456;-4.456;2022-12-24T04:46:10;14.08;81.53
74178;DHT22;62540;48.456;-4.456;2022-12-24T04:48:38;14.09;81.53
74178;DHT22;62540;48.456;-4.456;2022-12-24T04:51:04;14.04;81.89
74178;DHT22;62540;48.456;-4.456;2022-12-24T04:53:30;14.06;81.85
74178;DHT22;62540;48.456;-4.456;2022-12-24T04:55:56;14.06;81.79
74178;DHT22;62540;48.456;-4.456;2022-12-24T04:58:22;14.08;81.76
74178;DHT22;62540;48.456;-4.456;2022-12-24T05:00:48;14.10;81.61
74178;DHT22;62540;48.456;-4.456;2022-12-24T05:03:13;14.15;81.49
74178;DHT22;62540;48.456;-4.456;2022-12-24T05:05:39;14.16;81.38
74178;DHT22;62540;48.456;-4.456;2022-12-24T05:08:04;14.18;81.53
74178;DHT22;62540;48.456;-4.456;2022-12-24T05:10:30;14.13;81.50
74178;DHT22;62540;48.456;-4.456;2022-12-24T05:12:56;14.13;81.43
74178;DHT22;62540;48.456;-4.456;2022-12-24T05:15:21;14.15;81.42
74178;DHT22;62540;48.456;-4.456;2022-12-24T05:17:46;14.10;81.68
74178;DHT22;62540;48.456;-4.456;2022-12-24T05:20:12;14.06;81.95
74178;DHT22;62540;48.456;-4.456;2022-12-24T05:22:37;14.05;82.11
74178;DHT22;62540;48.456;-4.456;2022-12-24T05:25:22;14.04;82.12
74178;DHT22;62540;48.456;-4.456;2022-12-24T05:28:05;14.04;82.09
74178;DHT22;62540;48.456;-4.456;2022-12-24T05:30:31;14.06;81.96
74178;DHT22;62540;48.456;-4.456;2022-12-24T05:32:56;14.04;82.00
74178;DHT22;62540;48.456;-4.456;2022-12-24T05:35:22;14.04;82.03
74178;DHT22;62540;48.456;-4.456;2022-12-24T05:37:47;14.04;81.96
74178;DHT22;62540;48.456;-4.456;2022-12-24T05:40:12;14.01;81.99
74178;DHT22;62540;48.456;-4.456;2022-12-24T05:42:38;13.98;82.13
74178;DHT22;62540;48.456;-4.456;2022-12-24T05:45:04;13.99;82.17
74178;DHT22;62540;48.456;-4.456;2022-12-24T05:47:29;13.95;82.15
74178;DHT22;62540;48.456;-4.456;2022-12-24T05:49:54;14.02;82.10
74178;DHT22;62540;48.456;-4.456;2022-12-24T05:52:20;14.05;82.04
74178;DHT22;62540;48.456;-4.456;2022-12-24T05:54:45;14.04;82.03
74178;DHT22;62540;48.456;-4.456;2022-12-24T05:57:11;14.02;82.05
74178;DHT22;62540;48.456;-4.456;2022-12-24T05:59:36;13.98;82.34
74178;DHT22;62540;48.456;-4.456;2022-12-24T06:02:02;13.99;82.36
74178;DHT22;62540;48.456;-4.456;2022-12-24T06:04:27;13.98;82.52
74178;DHT22;62540;48.456;-4.456;2022-12-24T06:06:52;14.01;82.40
74178;DHT22;62540;48.456;-4.456;2022-12-24T06:09:18;14.05;82.14
74178;DHT22;62540;48.456;-4.456;2022-12-24T06:11:43;13.99;82.23
74178;DHT22;62540;48.456;-4.456;2022-12-24T06:14:09;14.02;82.16
74178;DHT22;62540;48.456;-4.456;2022-12-24T06:16:34;13.99;82.20
74178;DHT22;62540;48.456;-4.456;2022-12-24T06:18:59;14.05;82.08
74178;DHT22;62540;48.456;-4.456;2022-12-24T06:21:25;14.06;82.05
74178;DHT22;62540;48.456;-4.456;2022-12-24T06:23:50;14.08;82.21
74178;DHT22;62540;48.456;-4.456;2022-12-24T06:26:19;14.05;82.26
74178;DHT22;62540;48.456;-4.456;2022-12-24T06:28:45;14.08;82.28
74178;DHT22;62540;48.456;-4.456;2022-12-24T06:31:13;14.08;82.25
74178;DHT22;62540;48.456;-4.456;2022-12-24T06:33:39;14.10;82.21
74178;DHT22;62540;48.456;-4.456;2022-12-24T06:36:10;14.10;82.19
74178;DHT22;62540;48.456;-4.456;2022-12-24T06:38:37;14.10;82.27
74178;DHT22;62540;48.456;-4.456;2022-12-24T06:41:06;14.13;82.26
74178;DHT22;62540;48.456;-4.456;2022-12-24T06:43:32;14.15;82.20
74178;DHT22;62540;48.456;-4.456;2022-12-24T06:46:01;14.13;82.39
74178;DHT22;62540;48.456;-4.456;2022-12-24T06:48:27;14.09;82.61
74178;DHT22;62540;48.456;-4.456;2022-12-24T06:50:53;14.08;82.67
74178;DHT22;62540;48.456;-4.456;2022-12-24T06:53:18;14.09;82.60
74178;DHT22;62540;48.456;-4.456;2022-12-24T06:55:43;14.05;82.90
74178;DHT22;62540;48.456;-4.456;2022-12-24T06:58:09;14.13;82.72
74178;DHT22;62540;48.456;-4.456;2022-12-24T07:00:35;14.13;82.60
74178;DHT22;62540;48.456;-4.456;2022-12-24T07:03:00;14.12;82.61
74178;DHT22;62540;48.456;-4.456;2022-12-24T07:05:26;14.15;82.45
74178;DHT22;62540;48.456;-4.456;2022-12-24T07:07:51;14.16;82.49
74178;DHT22;62540;48.456;-4.456;2022-12-24T07:10:18;14.18;82.46
74178;DHT22;62540;48.456;-4.456;2022-12-24T07:12:44;14.19;82.54
74178;DHT22;62540;48.456;-4.456;2022-12-24T07:15:10;14.19;82.42
74178;DHT22;62540;48.456;-4.456;2022-12-24T07:17:35;14.19;82.40
74178;DHT22;62540;48.456;-4.456;2022-12-24T07:20:01;14.16;82.47
74178;DHT22;62540;48.456;-4.456;2022-12-24T07:22:27;14.12;82.44
74178;DHT22;62540;48.456;-4.456;2022-12-24T07:24:52;14.13;82.28
74178;DHT22;62540;48.456;-4.456;2022-12-24T07:27:18;14.16;82.16
74178;DHT22;62540;48.456;-4.456;2022-12-24T07:29:43;14.15;81.83
74178;DHT22;62540;48.456;-4.456;2022-12-24T07:32:08;14.15;81.74
74178;DHT22;62540;48.456;-4.456;2022-12-24T07:34:34;14.13;81.71
74178;DHT22;62540;48.456;-4.456;2022-12-24T07:37:00;14.12;81.56
74178;DHT22;62540;48.456;-4.456;2022-12-24T07:39:25;14.13;81.54
74178;DHT22;62540;48.456;-4.456;2022-12-24T07:41:51;14.15;81.65
74178;DHT22;62540;48.456;-4.456;2022-12-24T07:44:16;14.12;81.96
74178;DHT22;62540;48.456;-4.456;2022-12-24T07:46:42;14.10;81.99
74178;DHT22;62540;48.456;-4.456;2022-12-24T07:49:08;14.09;81.93
74178;DHT22;62540;48.456;-4.456;2022-12-24T07:51:34;14.08;81.85
74178;DHT22;62540;48.456;-4.456;2022-12-24T07:54:00;14.05;81.84
74178;DHT22;62540;48.456;-4.456;2022-12-24T07:56:25;14.08;81.60
74178;DHT22;62540;48.456;-4.456;2022-12-24T07:58:51;14.10;81.58
74178;DHT22;62540;48.456;-4.456;2022-12-24T08:01:17;14.09;81.60
74178;DHT22;62540;48.456;-4.456;2022-12-24T08:03:43;14.08;81.90
74178;DHT22;62540;48.456;-4.456;2022-12-24T08:06:09;14.06;81.87
74178;DHT22;62540;48.456;-4.456;2022-12-24T08:08:35;14.08;81.74
74178;DHT22;62540;48.456;-4.456;2022-12-24T08:11:03;14.05;81.57
74178;DHT22;62540;48.456;-4.456;2022-12-24T08:13:29;14.08;81.45
74178;DHT22;62540;48.456;-4.456;2022-12-24T08:15:55;14.10;81.45
74178;DHT22;62540;48.456;-4.456;2022-12-24T08:18:20;14.08;81.62
74178;DHT22;62540;48.456;-4.456;2022-12-24T08:20:46;14.09;81.69
74178;DHT22;62540;48.456;-4.456;2022-12-24T08:23:11;14.10;81.75
74178;DHT22;62540;48.456;-4.456;2022-12-24T08:25:37;14.04;82.05
74178;DHT22;62540;48.456;-4.456;2022-12-24T08:28:04;14.08;82.17
74178;DHT22;62540;48.456;-4.456;2022-12-24T08:30:29;14.12;82.23
74178;DHT22;62540;48.456;-4.456;2022-12-24T08:32:55;14.12;82.30
74178;DHT22;62540;48.456;-4.456;2022-12-24T08:35:20;14.13;82.60
74178;DHT22;62540;48.456;-4.456;2022-12-24T08:37:45;14.12;82.45
74178;DHT22;62540;48.456;-4.456;2022-12-24T08:40:11;14.09;81.75
74178;DHT22;62540;48.456;-4.456;2022-12-24T08:42:36;14.05;80.71
74178;DHT22;62540;48.456;-4.456;2022-12-24T08:45:02;13.95;80.05
74178;DHT22;62540;48.456;-4.456;2022-12-24T08:47:28;13.88;80.12
74178;DHT22;62540;48.456;-4.456;2022-12-24T08:49:53;13.90;79.94
74178;DHT22;62540;48.456;-4.456;2022-12-24T08:52:18;13.85;80.04
74178;DHT22;62540;48.456;-4.456;2022-12-24T08:54:44;13.85;79.94
74178;DHT22;62540;48.456;-4.456;2022-12-24T08:57:09;13.79;79.98
74178;DHT22;62540;48.456;-4.456;2022-12-24T08:59:34;13.77;80.19
74178;DHT22;62540;48.456;-4.456;2022-12-24T09:02:00;13.72;80.42
74178;DHT22;62540;48.456;-4.456;2022-12-24T09:04:26;13.69;80.35
74178;DHT22;62540;48.456;-4.456;2022-12-24T09:06:52;13.64;80.45
74178;DHT22;62540;48.456;-4.456;2022-12-24T09:09:17;13.60;80.47
74178;DHT22;62540;48.456;-4.456;2022-12-24T09:11:42;13.64;80.58
74178;DHT22;62540;48.456;-4.456;2022-12-24T09:14:09;13.60;80.47
74178;DHT22;62540;48.456;-4.456;2022-12-24T09:16:34;13.58;80.63
74178;DHT22;62540;48.456;-4.456;2022-12-24T09:19:00;13.60;80.44
74178;DHT22;62540;48.456;-4.456;2022-12-24T09:21:25;13.54;80.67
74178;DHT22;62540;48.456;-4.456;2022-12-24T09:23:51;13.54;80.89
74178;DHT22;62540;48.456;-4.456;2022-12-24T09:26:24;13.55;81.13
74178;DHT22;62540;48.456;-4.456;2022-12-24T09:28:51;13.55;81.15
74178;DHT22;62540;48.456;-4.456;2022-12-24T09:31:18;13.48;81.21
74178;DHT22;62540;48.456;-4.456;2022-12-24T09:33:44;13.44;81.12
74178;DHT22;62540;48.456;-4.456;2022-12-24T09:36:11;13.47;80.83
74178;DHT22;62540;48.456;-4.456;2022-12-24T09:38:37;13.43;80.78
74178;DHT22;62540;48.456;-4.456;2022-12-24T09:46:44;13.50;80.86
74178;DHT22;62540;48.456;-4.456;2022-12-24T09:49:19;13.47;80.88
74178;DHT22;62540;48.456;-4.456;2022-12-24T09:51:51;13.46;80.80
74178;DHT22;62540;48.456;-4.456;2022-12-24T09:54:23;13.46;80.66
74178;DHT22;62540;48.456;-4.456;2022-12-24T09:56:50;13.48;80.67
74178;DHT22;62540;48.456;-4.456;2022-12-24T09:59:22;13.48;80.47
74178;DHT22;62540;48.456;-4.456;2022-12-24T10:01:50;13.51;80.50
74178;DHT22;62540;48.456;-4.456;2022-12-24T10:04:19;13.48;80.34
74178;DHT22;62540;48.456;-4.456;2022-12-24T10:06:53;13.51;79.83
74178;DHT22;62540;48.456;-4.456;2022-12-24T10:15:14;13.58;79.01
74178;DHT22;62540;48.456;-4.456;2022-12-24T10:23:36;13.60;79.34
74178;DHT22;62540;48.456;-4.456;2022-12-24T10:26:26;13.62;78.78
74178;DHT22;62540;48.456;-4.456;2022-12-24T10:28:55;13.64;78.70
74178;DHT22;62540;48.456;-4.456;2022-12-24T10:31:30;13.60;78.74
74178;DHT22;62540;48.456;-4.456;2022-12-24T10:34:00;13.65;78.56
74178;DHT22;62540;48.456;-4.456;2022-12-24T10:36:28;13.62;78.40
74178;DHT22;62540;48.456;-4.456;2022-12-24T10:38:55;13.68;78.43
74178;DHT22;62540;48.456;-4.456;2022-12-24T10:41:21;13.72;78.63
74178;DHT22;62540;48.456;-4.456;2022-12-24T10:43:47;13.67;78.28
74178;DHT22;62540;48.456;-4.456;2022-12-24T10:46:36;13.65;78.41
74178;DHT22;62540;48.456;-4.456;2022-12-24T10:49:05;13.64;78.49
74178;DHT22;62540;48.456;-4.456;2022-12-24T10:51:43;13.61;78.55
74178;DHT22;62540;48.456;-4.456;2022-12-24T10:56:43;13.64;78.49
74178;DHT22;62540;48.456;-4.456;2022-12-24T10:59:41;13.65;78.52
74178;DHT22;62540;48.456;-4.456;2022-12-24T11:04:50;13.62;78.25
74178;DHT22;62540;48.456;-4.456;2022-12-24T11:07:21;13.65;78.67
74178;DHT22;62540;48.456;-4.456;2022-12-24T11:12:23;13.64;78.46
74178;DHT22;62540;48.456;-4.456;2022-12-24T11:15:00;13.58;78.71
74178;DHT22;62540;48.456;-4.456;2022-12-24T11:17:26;13.61;78.73
74178;DHT22;62540;48.456;-4.456;2022-12-24T11:19:52;13.64;78.83
74178;DHT22;62540;48.456;-4.456;2022-12-24T11:22:18;13.67;78.68
74178;DHT22;62540;48.456;-4.456;2022-12-24T11:24:45;13.69;77.93
74178;DHT22;62540;48.456;-4.456;2022-12-24T11:33:26;13.74;77.73
74178;DHT22;62540;48.456;-4.456;2022-12-24T11:35:39;13.78;78.04
74178;DHT22;62540;48.456;-4.456;2022-12-24T11:40:45;13.75;78.09
74178;DHT22;62540;48.456;-4.456;2022-12-24T11:43:17;13.81;77.98
74178;DHT22;62540;48.456;-4.456;2022-12-24T11:45:52;13.77;77.98
74178;DHT22;62540;48.456;-4.456;2022-12-24T11:48:32;13.79;77.95
74178;DHT22;62540;48.456;-4.456;2022-12-24T11:51:03;13.81;77.65
74178;DHT22;62540;48.456;-4.456;2022-12-24T11:53:49;13.86;77.56
74178;DHT22;62540;48.456;-4.456;2022-12-24T11:56:32;13.85;77.44
74178;DHT22;62540;48.456;-4.456;2022-12-24T11:59:06;13.86;77.76
74178;DHT22;62540;48.456;-4.456;2022-12-24T12:04:34;13.86;77.74
74178;DHT22;62540;48.456;-4.456;2022-12-24T12:07:02;13.92;77.65
74178;DHT22;62540;48.456;-4.456;2022-12-24T12:09:32;13.95;77.50
74178;DHT22;62540;48.456;-4.456;2022-12-24T12:12:09;13.95;77.32
74178;DHT22;62540;48.456;-4.456;2022-12-24T12:14:45;13.97;77.02
74178;DHT22;62540;48.456;-4.456;2022-12-24T12:17:35;14.02;77.43
74178;DHT22;62540;48.456;-4.456;2022-12-24T12:20:15;14.06;76.66
74178;DHT22;62540;48.456;-4.456;2022-12-24T12:22:48;14.10;76.84
74178;DHT22;62540;48.456;-4.456;2022-12-24T12:25:25;14.09;76.63
74178;DHT22;62540;48.456;-4.456;2022-12-24T12:27:54;14.10;77.18
74178;DHT22;62540;48.456;-4.456;2022-12-24T12:30:21;14.10;77.32
74178;DHT22;62540;48.456;-4.456;2022-12-24T12:35:33;14.10;77.53
74178;DHT22;62540;48.456;-4.456;2022-12-24T12:38:10;14.10;77.65
74178;DHT22;62540;48.456;-4.456;2022-12-24T12:40:42;14.10;77.87
74178;DHT22;62540;48.456;-4.456;2022-12-24T12:57:17;14.25;77.60
74178;DHT22;62540;48.456;-4.456;2022-12-24T12:59:51;14.16;77.34
74178;DHT22;62540;48.456;-4.456;2022-12-24T13:08:33;14.23;78.01
74178;DHT22;62540;48.456;-4.456;2022-12-24T13:11:08;14.27;77.95
74178;DHT22;62540;48.456;-4.456;2022-12-24T13:13:57;14.34;77.91
74178;DHT22;62540;48.456;-4.456;2022-12-24T13:22:01;14.46;77.41
74178;DHT22;62540;48.456;-4.456;2022-12-24T13:24:30;14.46;77.33
74178;DHT22;62540;48.456;-4.456;2022-12-24T13:27:17;14.44;77.49
74178;DHT22;62540;48.456;-4.456;2022-12-24T13:35:00;14.41;77.55
74178;DHT22;62540;48.456;-4.456;2022-12-24T13:47:55;14.46;78.01
74178;DHT22;62540;48.456;-4.456;2022-12-24T13:50:27;14.47;78.12
74178;DHT22;62540;48.456;-4.456;2022-12-24T13:52:54;14.48;78.10
74178;DHT22;62540;48.456;-4.456;2022-12-24T13:55:20;14.44;77.63
74178;DHT22;62540;48.456;-4.456;2022-12-24T13:57:58;14.40;78.12
74178;DHT22;62540;48.456;-4.456;2022-12-24T14:00:29;14.30;77.88
74178;DHT22;62540;48.456;-4.456;2022-12-24T14:05:47;14.30;78.07
74178;DHT22;62540;48.456;-4.456;2022-12-24T14:08:33;14.32;77.90
74178;DHT22;62540;48.456;-4.456;2022-12-24T14:11:15;14.30;77.88
74178;DHT22;62540;48.456;-4.456;2022-12-24T14:18:43;14.22;77.90
74178;DHT22;62540;48.456;-4.456;2022-12-24T14:21:34;14.22;77.81
74178;DHT22;62540;48.456;-4.456;2022-12-24T14:24:13;14.19;78.30
74178;DHT22;62540;48.456;-4.456;2022-12-24T14:26:49;14.13;78.65
74178;DHT22;62540;48.456;-4.456;2022-12-24T14:29:21;14.19;78.68
74178;DHT22;62540;48.456;-4.456;2022-12-24T14:31:54;14.26;78.22
74178;DHT22;62540;48.456;-4.456;2022-12-24T14:34:20;14.29;78.29
74178;DHT22;62540;48.456;-4.456;2022-12-24T14:36:47;14.25;78.43
74178;DHT22;62540;48.456;-4.456;2022-12-24T14:39:27;14.26;78.36
74178;DHT22;62540;48.456;-4.456;2022-12-24T14:53:41;14.09;78.66
74178;DHT22;62540;48.456;-4.456;2022-12-24T14:56:18;14.12;78.62
74178;DHT22;62540;48.456;-4.456;2022-12-24T14:58:45;14.10;78.62
74178;DHT22;62540;48.456;-4.456;2022-12-24T15:04:14;14.15;78.74
74178;DHT22;62540;48.456;-4.456;2022-12-24T15:06:46;14.18;78.68
74178;DHT22;62540;48.456;-4.456;2022-12-24T15:09:19;14.20;78.33
74178;DHT22;62540;48.456;-4.456;2022-12-24T15:11:47;14.19;78.49
74178;DHT22;62540;48.456;-4.456;2022-12-24T15:14:14;14.18;78.47
74178;DHT22;62540;48.456;-4.456;2022-12-24T15:16:40;14.15;78.68
74178;DHT22;62540;48.456;-4.456;2022-12-24T15:19:17;14.15;78.75
74178;DHT22;62540;48.456;-4.456;2022-12-24T15:21:44;14.13;78.78
74178;DHT22;62540;48.456;-4.456;2022-12-24T15:24:33;14.08;79.04
74178;DHT22;62540;48.456;-4.456;2022-12-24T15:27:01;14.09;78.90
74178;DHT22;62540;48.456;-4.456;2022-12-24T15:29:32;14.08;79.21
74178;DHT22;62540;48.456;-4.456;2022-12-24T15:31:59;14.08;79.18
74178;DHT22;62540;48.456;-4.456;2022-12-24T15:34:36;14.09;79.31
74178;DHT22;62540;48.456;-4.456;2022-12-24T15:37:14;14.13;79.12
74178;DHT22;62540;48.456;-4.456;2022-12-24T15:39:41;14.12;78.98
74178;DHT22;62540;48.456;-4.456;2022-12-24T15:42:08;14.08;79.01
74178;DHT22;62540;48.456;-4.456;2022-12-24T15:44:39;14.10;79.05
74178;DHT22;62540;48.456;-4.456;2022-12-24T15:47:14;14.15;78.97
74178;DHT22;62540;48.456;-4.456;2022-12-24T15:49:44;14.13;78.97
74178;DHT22;62540;48.456;-4.456;2022-12-24T15:52:14;14.12;79.01
74178;DHT22;62540;48.456;-4.456;2022-12-24T15:54:46;14.06;79.06
74178;DHT22;62540;48.456;-4.456;2022-12-24T15:57:32;14.05;79.21
74178;DHT22;62540;48.456;-4.456;2022-12-24T16:00:02;14.04;79.41
74178;DHT22;62540;48.456;-4.456;2022-12-24T16:10:39;13.94;79.63
74178;DHT22;62540;48.456;-4.456;2022-12-24T16:15:50;13.95;79.53
74178;DHT22;62540;48.456;-4.456;2022-12-24T16:18:21;13.90;79.56
74178;DHT22;62540;48.456;-4.456;2022-12-24T16:20:49;13.89;79.44
74178;DHT22;62540;48.456;-4.456;2022-12-24T16:23:20;13.85;79.60
74178;DHT22;62540;48.456;-4.456;2022-12-24T16:25:46;13.83;79.73
74178;DHT22;62540;48.456;-4.456;2022-12-24T16:28:13;13.82;79.79
74178;DHT22;62540;48.456;-4.456;2022-12-24T16:30:38;13.86;79.63
74178;DHT22;62540;48.456;-4.456;2022-12-24T16:33:04;13.82;79.70
74178;DHT22;62540;48.456;-4.456;2022-12-24T16:35:31;13.74;80.02
74178;DHT22;62540;48.456;-4.456;2022-12-24T16:38:01;13.75;80.23
74178;DHT22;62540;48.456;-4.456;2022-12-24T16:40:27;13.77;80.19
74178;DHT22;62540;48.456;-4.456;2022-12-24T16:42:55;13.72;80.44
74178;DHT22;62540;48.456;-4.456;2022-12-24T16:45:39;13.72;80.56
74178;DHT22;62540;48.456;-4.456;2022-12-24T16:48:06;13.68;80.83
74178;DHT22;62540;48.456;-4.456;2022-12-24T16:50:32;13.67;81.06
74178;DHT22;62540;48.456;-4.456;2022-12-24T16:52:58;13.67;81.06
74178;DHT22;62540;48.456;-4.456;2022-12-24T16:55:23;13.67;80.97
74178;DHT22;62540;48.456;-4.456;2022-12-24T16:57:49;13.69;80.83
74178;DHT22;62540;48.456;-4.456;2022-12-24T17:00:16;13.67;80.96
74178;DHT22;62540;48.456;-4.456;2022-12-24T17:02:44;13.68;81.06
74178;DHT22;62540;48.456;-4.456;2022-12-24T17:05:10;13.64;81.29
74178;DHT22;62540;48.456;-4.456;2022-12-24T17:07:35;13.64;81.35
74178;DHT22;62540;48.456;-4.456;2022-12-24T17:10:01;13.65;81.32
74178;DHT22;62540;48.456;-4.456;2022-12-24T17:12:26;13.69;81.39
74178;DHT22;62540;48.456;-4.456;2022-12-24T17:14:52;13.74;81.15
74178;DHT22;62540;48.456;-4.456;2022-12-24T17:17:25;13.71;80.86
74178;DHT22;62540;48.456;-4.456;2022-12-24T17:19:51;13.69;81.02
74178;DHT22;62540;48.456;-4.456;2022-12-24T17:22:17;13.65;81.19
74178;DHT22;62540;48.456;-4.456;2022-12-24T17:24:42;13.69;81.32
74178;DHT22;62540;48.456;-4.456;2022-12-24T17:27:08;13.69;81.22
74178;DHT22;62540;48.456;-4.456;2022-12-24T17:29:33;13.69;81.27
74178;DHT22;62540;48.456;-4.456;2022-12-24T17:31:59;13.72;81.05
74178;DHT22;62540;48.456;-4.456;2022-12-24T17:34:24;13.71;80.99
74178;DHT22;62540;48.456;-4.456;2022-12-24T17:36:49;13.72;81.41
74178;DHT22;62540;48.456;-4.456;2022-12-24T17:39:15;13.72;81.39
74178;DHT22;62540;48.456;-4.456;2022-12-24T17:41:40;13.74;81.34
74178;DHT22;62540;48.456;-4.456;2022-12-24T17:44:05;13.74;81.73